Time;durP1;ratioP1;P1;durP2;ratioP2;P2;SDS_P1;SDS_P2;PMS_P1;PMS_P2;Temp;Humidity;BMP_temperature;BMP_pressure;BME280_temperature;BME280_humidity;BME280_pressure;Samples;Min_cycle;Max_cycle;Signal;HPM_P1;HPM_P2
2021/03/13 00:00:32;;;;;;;1.48;0.65;;;4.90;99.90;;;;;;4939717;29;20027;-90
2021/03/13 00:02:58;;;;;;;1.80;0.82;;;4.90;99.90;;;;;;4939962;29;20440;-92
2021/03/13 00:05:31;;;;;;;1.25;0.50;;;4.90;99.90;;;;;;4939411;29;20027;-92
2021/03/13 00:07:56;;;;;;;4.20;0.60;;;4.90;99.90;;;;;;4939602;29;20027;-92
2021/03/13 00:10:22;;;;;;;1.27;0.52;;;4.90;99.90;;;;;;4939582;29;20042;-90
2021/03/13 00:12:48;;;;;;;1.95;0.47;;;4.90;99.90;;;;;;4956957;29;20046;-90
2021/03/13 00:15:15;;;;;;;1.40;0.30;;;4.90;99.90;;;;;;4955953;29;20035;-90
2021/03/13 00:17:51;;;;;;;2.20;0.73;;;4.80;99.90;;;;;;4945823;29;20023;-90
2021/03/13 00:20:22;;;;;;;1.67;0.80;;;4.80;99.90;;;;;;4946556;29;20023;-91
2021/03/13 00:22:48;;;;;;;2.15;0.65;;;4.80;99.90;;;;;;4942354;29;20046;-90
2021/03/13 00:25:14;;;;;;;1.40;0.70;;;4.80;99.90;;;;;;4938808;29;20023;-89
2021/03/13 00:27:46;;;;;;;0.47;0.47;;;4.80;99.90;;;;;;4938601;29;20548;-91
2021/03/13 00:30:21;;;;;;;1.00;0.60;;;4.80;99.90;;;;;;4938692;29;20035;-90
2021/03/13 00:32:49;;;;;;;2.85;0.90;;;4.90;99.90;;;;;;4938589;29;20388;-90
2021/03/13 00:35:16;;;;;;;3.95;0.47;;;4.80;99.90;;;;;;4938607;29;20035;-90
2021/03/13 00:37:42;;;;;;;2.38;0.90;;;4.90;99.90;;;;;;4938461;29;20034;-89
2021/03/13 00:40:11;;;;;;;3.17;0.70;;;4.80;99.90;;;;;;4938928;29;20110;-92
2021/03/13 00:42:37;;;;;;;1.65;0.80;;;4.80;99.90;;;;;;4938467;29;20098;-90
2021/03/13 00:45:04;;;;;;;1.58;0.52;;;4.80;99.90;;;;;;4939067;29;20031;-90
2021/03/13 00:47:30;;;;;;;3.70;0.77;;;4.90;99.90;;;;;;4937751;29;20059;-89
2021/03/13 00:49:55;;;;;;;4.20;0.90;;;4.80;99.90;;;;;;4937999;29;20031;-90
2021/03/13 00:52:21;;;;;;;1.13;0.63;;;4.90;99.90;;;;;;4938621;29;20467;-89
2021/03/13 00:54:47;;;;;;;2.22;0.63;;;4.90;99.90;;;;;;4941866;29;20086;-91
2021/03/13 00:57:13;;;;;;;2.10;0.65;;;4.90;99.90;;;;;;4942233;29;20114;-89
2021/03/13 00:59:38;;;;;;;0.50;0.40;;;4.80;99.90;;;;;;4959068;29;20031;-91
2021/03/13 01:02:04;;;;;;;0.32;0.32;;;4.80;99.90;;;;;;4942185;29;20056;-91
2021/03/13 01:04:30;;;;;;;3.47;0.65;;;4.80;99.90;;;;;;4942436;29;20508;-90
2021/03/13 01:06:55;;;;;;;0.20;0.20;;;4.90;99.90;;;;;;4942409;29;20121;-93
2021/03/13 01:09:21;;;;;;;0.20;0.20;;;4.80;99.90;;;;;;4942232;29;20042;-92
2021/03/13 01:11:47;;;;;;;1.17;0.50;;;4.90;99.90;;;;;;4942433;29;20444;-90
2021/03/13 01:14:12;;;;;;;1.63;0.40;;;4.90;99.90;;;;;;4942324;29;20027;-90
2021/03/13 01:16:38;;;;;;;0.30;0.30;;;4.90;99.90;;;;;;4942281;29;20523;-92
2021/03/13 01:19:04;;;;;;;0.47;0.30;;;4.90;99.90;;;;;;4941789;29;20035;-90
2021/03/13 01:21:30;;;;;;;1.27;0.45;;;5.00;99.90;;;;;;4940668;29;20453;-92
2021/03/13 01:23:55;;;;;;;0.45;0.40;;;4.90;99.90;;;;;;4942045;29;20039;-93
2021/03/13 01:26:21;;;;;;;1.27;0.47;;;4.90;99.90;;;;;;4941905;29;20477;-91
2021/03/13 01:28:47;;;;;;;0.63;0.30;;;5.00;99.90;;;;;;4942232;29;20477;-93
2021/03/13 01:31:13;;;;;;;1.02;0.40;;;5.00;99.90;;;;;;4944730;29;20035;-90
2021/03/13 01:33:39;;;;;;;1.70;0.50;;;5.00;99.90;;;;;;4953501;29;20114;-91
2021/03/13 01:36:05;;;;;;;1.27;0.43;;;5.00;99.90;;;;;;4975022;29;20038;-90
2021/03/13 01:38:30;;;;;;;3.47;0.70;;;5.10;99.90;;;;;;4962940;29;20007;-90
2021/03/13 01:40:57;;;;;;;3.20;0.55;;;5.10;99.90;;;;;;4951469;29;20094;-90
2021/03/13 01:43:23;;;;;;;1.10;0.55;;;5.10;99.90;;;;;;4946450;29;20051;-90
2021/03/13 01:45:48;;;;;;;2.03;0.60;;;5.10;99.90;;;;;;4960359;29;20024;-92
2021/03/13 01:48:16;;;;;;;0.77;0.40;;;5.10;99.90;;;;;;4942068;29;20028;-92
2021/03/13 01:50:41;;;;;;;1.70;0.43;;;5.10;99.90;;;;;;4941571;29;20035;-90
2021/03/13 01:53:07;;;;;;;1.77;0.40;;;5.00;99.90;;;;;;4941328;29;20019;-91
2021/03/13 01:55:33;;;;;;;1.08;0.35;;;5.00;99.90;;;;;;4941510;29;20043;-91
2021/03/13 01:57:58;;;;;;;0.50;0.50;;;4.90;99.90;;;;;;4941304;29;20024;-90
2021/03/13 02:00:26;;;;;;;0.88;0.55;;;4.80;99.90;;;;;;4941301;29;20023;-90
2021/03/13 02:02:51;;;;;;;1.60;0.80;;;4.80;99.90;;;;;;4941146;29;20024;-90
2021/03/13 02:05:29;;;;;;;0.88;0.50;;;4.60;99.90;;;;;;4940476;29;20027;-92
2021/03/13 02:08:13;;;;;;;1.45;0.30;;;4.50;99.90;;;;;;4941524;29;20023;-90
2021/03/13 02:11:02;;;;;;;0.55;0.30;;;4.40;99.90;;;;;;4946758;29;20106;-91
2021/03/13 02:13:38;;;;;;;1.75;0.30;;;4.30;99.90;;;;;;4967427;29;20030;-90
2021/03/13 02:16:36;;;;;;;1.73;0.63;;;4.20;99.90;;;;;;4949857;29;20086;-90
2021/03/13 02:19:44;;;;;;;0.65;0.50;;;4.10;99.90;;;;;;4950218;29;20059;-91
2021/03/13 02:22:15;;;;;;;3.58;0.85;;;4.00;99.90;;;;;;4942753;29;20031;-91
2021/03/13 02:24:56;;;;;;;8.07;1.10;;;3.90;99.90;;;;;;4940726;29;20023;-91
2021/03/13 02:27:26;;;;;;;2.33;1.40;;;3.90;99.90;;;;;;4940730;29;20122;-91
2021/03/13 02:29:58;;;;;;;2.95;1.67;;;3.90;99.90;;;;;;4940739;29;20043;-91
2021/03/13 02:32:41;;;;;;;2.22;1.60;;;3.90;99.90;;;;;;4940772;29;20485;-92
2021/03/13 02:35:16;;;;;;;4.10;2.10;;;3.90;99.90;;;;;;4940471;29;20020;-91
2021/03/13 02:37:47;;;;;;;3.90;2.13;;;3.90;99.90;;;;;;4940444;29;20058;-92
2021/03/13 02:40:18;;;;;;;4.35;2.40;;;3.90;99.90;;;;;;4940969;29;20031;-92
2021/03/13 02:42:53;;;;;;;9.07;3.97;;;3.90;99.90;;;;;;4940424;29;20051;-91
2021/03/13 02:45:22;;;;;;;5.03;2.35;;;3.90;99.90;;;;;;4940489;29;20031;-93
2021/03/13 02:47:50;;;;;;;5.47;1.77;;;4.00;99.90;;;;;;4940368;29;20589;-91
2021/03/13 02:50:16;;;;;;;4.20;1.00;;;3.90;99.90;;;;;;4940303;29;20050;-91
2021/03/13 02:52:42;;;;;;;1.90;0.75;;;3.90;99.90;;;;;;4940143;29;20114;-91
2021/03/13 02:55:12;;;;;;;1.58;0.70;;;3.90;99.90;;;;;;4940069;29;20041;-92
2021/03/13 02:57:41;;;;;;;2.43;0.90;;;3.90;99.90;;;;;;4940082;29;20054;-92
2021/03/13 03:00:11;;;;;;;3.25;1.20;;;3.80;99.90;;;;;;4940374;29;20279;-92
2021/03/13 03:02:38;;;;;;;8.25;1.77;;;3.80;99.90;;;;;;4941621;29;20126;-93
2021/03/13 03:05:05;;;;;;;8.77;1.23;;;3.70;99.90;;;;;;4942242;29;20118;-91
2021/03/13 03:07:32;;;;;;;7.90;1.35;;;3.80;99.90;;;;;;4941971;29;20030;-90
2021/03/13 03:09:58;;;;;;;5.88;1.05;;;3.80;99.90;;;;;;4942521;29;20046;-91
2021/03/13 03:12:25;;;;;;;9.68;1.60;;;3.80;99.90;;;;;;4941136;29;20034;-92
2021/03/13 03:14:51;;;;;;;7.93;1.75;;;3.90;99.90;;;;;;4940028;29;20110;-91
2021/03/13 03:17:18;;;;;;;5.57;1.38;;;3.90;99.90;;;;;;4939573;29;20023;-92
2021/03/13 03:19:46;;;;;;;2.08;0.60;;;3.90;99.90;;;;;;4939533;29;20484;-92
2021/03/13 03:22:12;;;;;;;5.95;1.00;;;3.90;99.90;;;;;;4939607;29;20063;-93
2021/03/13 03:24:38;;;;;;;4.90;0.98;;;3.90;99.90;;;;;;4939552;29;20366;-92
2021/03/13 03:27:05;;;;;;;5.75;0.98;;;3.90;99.90;;;;;;4939638;29;20086;-91
2021/03/13 03:29:32;;;;;;;3.58;0.70;;;3.90;99.90;;;;;;4939510;29;20047;-91
2021/03/13 03:31:58;;;;;;;3.67;0.82;;;3.80;99.90;;;;;;4939403;29;20562;-92
2021/03/13 03:34:23;;;;;;;2.90;1.13;;;3.80;99.90;;;;;;4939600;29;20031;-91
2021/03/13 03:36:49;;;;;;;3.67;0.95;;;3.80;99.90;;;;;;4939600;29;20031;-93
2021/03/13 03:39:16;;;;;;;2.75;0.90;;;3.80;99.90;;;;;;4939184;29;20027;-92
2021/03/13 03:41:44;;;;;;;11.98;0.80;;;3.80;99.90;;;;;;4938988;29;20138;-93
2021/03/13 03:44:19;;;;;;;5.57;0.90;;;3.80;99.90;;;;;;4939443;29;20488;-93
2021/03/13 03:46:46;;;;;;;6.38;1.08;;;3.80;99.90;;;;;;4939517;29;20429;-92
2021/03/13 03:49:13;;;;;;;1.85;0.75;;;3.70;99.90;;;;;;4940292;29;20023;-92
2021/03/13 03:51:40;;;;;;;6.45;1.00;;;3.70;99.90;;;;;;4947214;29;20063;-91
2021/03/13 03:54:10;;;;;;;2.00;0.63;;;3.70;99.90;;;;;;4962048;28;20015;-91
2021/03/13 03:56:39;;;;;;;9.02;0.88;;;3.70;99.90;;;;;;4960312;29;20103;-92
2021/03/13 03:59:07;;;;;;;9.18;2.90;;;3.70;99.90;;;;;;4946699;29;20028;-93
2021/03/13 04:01:34;;;;;;;1.38;0.80;;;3.70;99.90;;;;;;4948261;29;20023;-92
2021/03/13 04:04:03;;;;;;;6.35;1.27;;;3.70;99.90;;;;;;4945325;29;20074;-91
2021/03/13 04:06:32;;;;;;;8.15;1.25;;;3.60;99.90;;;;;;4942616;29;20054;-94
2021/03/13 04:09:00;;;;;;;5.32;0.98;;;3.60;99.90;;;;;;4947625;29;20031;-92
2021/03/13 04:11:27;;;;;;;5.60;1.73;;;3.60;99.90;;;;;;4940392;29;20035;-92
2021/03/13 04:13:56;;;;;;;2.90;1.10;;;3.60;99.90;;;;;;4940086;29;20106;-91
2021/03/13 04:16:23;;;;;;;9.57;1.45;;;3.60;99.90;;;;;;4939543;29;20024;-92
2021/03/13 04:18:48;;;;;;;16.63;1.23;;;3.60;99.90;;;;;;4939872;29;20024;-93
2021/03/13 04:21:15;;;;;;;9.20;1.48;;;3.60;99.90;;;;;;4940484;29;20560;-92
2021/03/13 04:23:46;;;;;;;16.17;1.38;;;3.60;99.90;;;;;;4952023;29;20131;-91
2021/03/13 04:26:12;;;;;;;4.38;0.88;;;3.60;99.90;;;;;;4959810;29;20091;-92
2021/03/13 04:28:37;;;;;;;5.43;1.25;;;3.60;99.90;;;;;;4958916;29;20038;-91
2021/03/13 04:31:05;;;;;;;3.92;1.05;;;3.60;99.90;;;;;;4951209;29;20043;-91
2021/03/13 04:33:33;;;;;;;10.85;0.85;;;3.60;99.90;;;;;;4941494;29;20023;-91
2021/03/13 04:35:59;;;;;;;14.30;3.53;;;3.60;99.90;;;;;;4942937;29;20401;-92
2021/03/13 04:38:26;;;;;;;3.83;1.17;;;3.60;99.90;;;;;;4941996;29;20042;-91
2021/03/13 04:40:53;;;;;;;4.55;1.10;;;3.60;99.90;;;;;;4940098;29;20069;-91
2021/03/13 04:43:21;;;;;;;5.65;1.05;;;3.60;99.90;;;;;;4939439;29;20148;-91
2021/03/13 04:45:48;;;;;;;2.35;0.77;;;3.60;99.90;;;;;;4939342;29;20051;-91
2021/03/13 04:48:14;;;;;;;6.97;0.90;;;3.60;99.90;;;;;;4939253;29;20027;-92
2021/03/13 04:50:41;;;;;;;4.65;0.95;;;3.50;99.90;;;;;;4939142;29;20111;-91
2021/03/13 04:53:07;;;;;;;7.20;1.00;;;3.50;99.90;;;;;;4939142;29;20512;-91
2021/03/13 04:55:32;;;;;;;5.07;1.27;;;3.50;99.90;;;;;;4938986;29;20028;-90
2021/03/13 04:57:58;;;;;;;9.98;1.77;;;3.50;99.90;;;;;;4938763;29;20035;-93
2021/03/13 05:00:24;;;;;;;11.48;2.47;;;3.40;99.90;;;;;;4938660;29;20038;-91
2021/03/13 05:02:50;;;;;;;12.05;2.25;;;3.40;99.90;;;;;;4938591;29;20045;-91
2021/03/13 05:05:16;;;;;;;9.30;2.17;;;3.40;99.90;;;;;;4938385;29;20029;-90
2021/03/13 05:07:42;;;;;;;6.18;2.17;;;3.40;99.90;;;;;;4938641;29;20082;-92
2021/03/13 05:10:09;;;;;;;8.85;2.67;;;3.40;99.90;;;;;;4938644;29;20070;-92
2021/03/13 05:12:35;;;;;;;13.98;2.90;;;3.40;99.90;;;;;;4938810;29;20038;-93
2021/03/13 05:15:05;;;;;;;6.38;2.28;;;3.40;99.90;;;;;;4938166;29;20401;-92
2021/03/13 05:17:31;;;;;;;5.60;2.08;;;3.40;99.90;;;;;;4955464;29;20033;-91
2021/03/13 05:19:56;;;;;;;10.75;1.92;;;3.50;99.90;;;;;;4955753;29;20030;-91
2021/03/13 05:22:22;;;;;;;9.05;1.48;;;3.50;99.90;;;;;;4938255;29;20527;-91
2021/03/13 05:24:48;;;;;;;4.38;1.83;;;3.50;99.90;;;;;;4938110;29;20035;-91
2021/03/13 05:27:13;;;;;;;7.00;3.10;;;3.50;99.90;;;;;;4938096;29;20050;-91
2021/03/13 05:29:39;;;;;;;5.50;2.72;;;3.50;99.90;;;;;;4938533;29;20469;-91
2021/03/13 05:32:05;;;;;;;7.72;2.92;;;3.50;99.90;;;;;;4938465;29;20501;-91
2021/03/13 05:34:31;;;;;;;3.20;1.50;;;3.50;99.90;;;;;;4938174;29;20031;-90
2021/03/13 05:36:56;;;;;;;5.40;2.50;;;3.50;99.90;;;;;;4937999;29;20086;-90
2021/03/13 05:39:22;;;;;;;1.95;1.65;;;3.50;99.90;;;;;;4938504;29;20046;-90
2021/03/13 05:41:48;;;;;;;6.32;2.40;;;3.50;99.90;;;;;;4941582;29;20043;-90
2021/03/13 05:44:14;;;;;;;7.30;2.42;;;3.50;99.90;;;;;;4941317;29;20020;-90
2021/03/13 05:46:44;;;;;;;6.10;1.92;;;3.50;99.90;;;;;;4941340;29;20409;-91
2021/03/13 05:49:10;;;;;;;10.47;3.90;;;3.50;99.90;;;;;;4941586;29;20393;-90
2021/03/13 05:51:38;;;;;;;10.02;4.00;;;3.50;99.90;;;;;;4941405;29;20035;-90
2021/03/13 05:54:06;;;;;;;10.60;4.47;;;3.50;99.90;;;;;;4942375;29;20078;-89
2021/03/13 05:56:32;;;;;;;9.50;4.20;;;3.60;99.90;;;;;;4949629;29;20035;-90
2021/03/13 05:58:59;;;;;;;15.40;8.82;;;3.50;99.90;;;;;;4950774;29;20043;-91
2021/03/13 06:01:30;;;;;;;16.88;8.68;;;3.60;99.90;;;;;;4950931;29;20023;-91
2021/03/13 06:03:56;;;;;;;9.80;5.53;;;3.60;99.90;;;;;;4950926;29;20505;-91
2021/03/13 06:06:23;;;;;;;15.82;6.43;;;3.50;99.90;;;;;;4943674;29;20283;-91
2021/03/13 06:08:51;;;;;;;7.25;3.45;;;3.50;99.90;;;;;;4941348;29;20031;-90
2021/03/13 06:11:18;;;;;;;5.88;2.22;;;3.60;99.90;;;;;;4940552;29;20145;-90
2021/03/13 06:13:44;;;;;;;6.03;1.75;;;3.50;99.90;;;;;;4940846;29;20393;-90
2021/03/13 06:16:10;;;;;;;9.63;1.60;;;3.50;99.90;;;;;;4940516;29;20027;-90
2021/03/13 06:18:56;;;;;;;2.92;1.00;;;3.50;99.90;;;;;;4941417;29;20087;-90
2021/03/13 06:21:22;;;;;;;3.13;1.50;;;3.50;99.90;;;;;;4942694;29;20027;-89
2021/03/13 06:23:50;;;;;;;0.95;0.80;;;3.40;99.90;;;;;;4943360;29;20030;-89
2021/03/13 06:26:15;;;;;;;2.83;0.75;;;3.40;99.90;;;;;;4942892;29;20480;-91
2021/03/13 06:28:41;;;;;;;2.13;0.85;;;3.30;99.90;;;;;;4943491;29;20035;-90
2021/03/13 06:31:12;;;;;;;1.08;0.68;;;3.30;99.90;;;;;;4941484;29;20046;-89
2021/03/13 06:33:37;;;;;;;1.38;1.27;;;3.30;99.90;;;;;;4940594;29;20031;-91
2021/03/13 06:36:05;;;;;;;1.83;1.48;;;3.20;99.90;;;;;;4940479;29;20031;-92
2021/03/13 06:38:33;;;;;;;2.95;1.92;;;3.20;99.90;;;;;;4940308;29;20023;-91
2021/03/13 06:41:22;;;;;;;2.10;1.33;;;3.10;99.90;;;;;;4940578;29;20128;-91
2021/03/13 06:43:50;;;;;;;1.52;1.10;;;3.00;99.90;;;;;;4940019;29;20035;-91
2021/03/13 06:46:21;;;;;;;2.20;1.00;;;2.90;99.90;;;;;;4940359;29;20114;-91
2021/03/13 06:48:51;;;;;;;2.42;1.00;;;2.80;99.90;;;;;;4940264;29;20077;-91
2021/03/13 06:51:24;;;;;;;2.85;1.98;;;2.70;99.90;;;;;;4940359;29;20058;-92
2021/03/13 06:54:11;;;;;;;1.67;1.52;;;2.60;99.90;;;;;;4940781;29;20125;-92
2021/03/13 06:56:53;;;;;;;4.00;1.30;;;2.60;99.90;;;;;;4940236;29;20484;-92
2021/03/13 06:59:36;;;;;;;0.73;0.73;;;2.50;99.90;;;;;;4940278;29;20027;-92
2021/03/13 07:02:06;;;;;;;2.88;0.95;;;2.50;99.90;;;;;;4940211;29;20030;-92
2021/03/13 07:04:32;;;;;;;3.28;2.47;;;2.50;99.90;;;;;;4939764;29;20024;-92
2021/03/13 07:06:59;;;;;;;2.65;1.90;;;2.50;99.90;;;;;;4939965;29;20505;-94
2021/03/13 07:09:59;;;;;;;0.90;0.90;;;2.50;99.90;;;;;;4939758;29;20027;-92
2021/03/13 07:12:36;;;;;;;2.15;1.58;;;2.50;99.90;;;;;;4939936;29;20042;-93
2021/03/13 07:15:26;;;;;;;1.60;1.50;;;2.60;99.90;;;;;;4938918;29;20043;-92
2021/03/13 07:18:00;;;;;;;3.05;1.55;;;2.60;99.90;;;;;;4941516;29;20059;-91
2021/03/13 07:20:32;;;;;;;2.50;1.80;;;2.60;99.90;;;;;;4938553;29;20031;-91
2021/03/13 07:23:00;;;;;;;4.43;1.10;;;2.60;99.90;;;;;;4955972;29;20007;-91
2021/03/13 07:25:27;;;;;;;0.98;0.80;;;2.60;99.90;;;;;;4960856;29;20019;-91
2021/03/13 07:27:57;;;;;;;0.40;0.40;;;2.70;99.90;;;;;;4951994;29;20019;-90
2021/03/13 07:30:24;;;;;;;0.40;0.40;;;2.70;99.90;;;;;;4948008;29;20049;-91
2021/03/13 07:32:55;;;;;;;2.05;0.50;;;2.80;99.90;;;;;;4942528;29;20035;-91
2021/03/13 07:35:22;;;;;;;3.53;0.50;;;2.80;99.90;;;;;;4945385;29;20031;-92
2021/03/13 07:37:57;;;;;;;1.48;0.90;;;2.80;99.90;;;;;;4951017;29;20038;-90
2021/03/13 07:40:23;;;;;;;0.90;0.63;;;2.80;99.90;;;;;;4951497;29;20039;-91
2021/03/13 07:42:50;;;;;;;1.25;0.70;;;2.90;99.90;;;;;;4945641;29;20070;-90
2021/03/13 07:45:18;;;;;;;0.82;0.40;;;2.90;99.90;;;;;;4942956;29;20477;-91
2021/03/13 07:52:36;;;;;;;8.02;1.65;;;3.00;99.90;;;;;;4900681;29;20082;-89
2021/03/13 07:55:03;;;;;;;2.33;0.70;;;3.20;99.90;;;;;;4939311;29;20030;-92
2021/03/13 07:57:30;;;;;;;2.78;1.10;;;3.30;99.90;;;;;;4938905;29;20035;-92
2021/03/13 07:59:56;;;;;;;3.65;0.60;;;3.30;99.90;;;;;;4939410;29;20016;-92
2021/03/13 08:02:30;;;;;;;3.47;0.60;;;3.40;99.90;;;;;;4938457;29;20099;-92
2021/03/13 08:04:58;;;;;;;2.83;0.75;;;3.50;99.90;;;;;;4939213;29;20027;-91
2021/03/13 08:07:28;;;;;;;3.55;0.55;;;3.60;99.90;;;;;;4936885;29;20235;-91
2021/03/13 08:09:55;;;;;;;4.05;0.73;;;3.70;99.90;;;;;;4944761;29;20031;-91
2021/03/13 08:12:41;;;;;;;2.38;0.70;;;3.70;99.90;;;;;;4938499;29;20085;-93
2021/03/13 08:15:30;;;;;;;4.15;0.60;;;3.70;99.90;;;;;;4938235;29;20027;-91
2021/03/13 08:17:56;;;;;;;1.45;0.85;;;3.80;99.90;;;;;;4936207;29;20046;-90
2021/03/13 08:20:32;;;;;;;3.30;0.40;;;3.70;99.90;;;;;;4937640;29;20495;-91
2021/03/13 08:23:13;;;;;;;4.43;0.50;;;3.70;99.90;;;;;;4937045;29;20038;-92
2021/03/13 08:25:59;;;;;;;2.13;0.60;;;3.70;99.90;;;;;;4921563;29;20497;-91
2021/03/13 08:28:47;;;;;;;0.20;0.20;;;3.70;99.90;;;;;;4938431;29;20023;-91
2021/03/13 08:31:25;;;;;;;1.73;0.30;;;3.80;99.90;;;;;;4937751;29;20047;-91
2021/03/13 08:33:55;;;;;;;4.05;1.02;;;3.80;99.90;;;;;;4938480;29;20082;-91
2021/03/13 08:36:26;;;;;;;0.22;0.22;;;3.80;99.90;;;;;;4938111;29;20027;-91
2021/03/13 08:38:59;;;;;;;;;;;3.90;99.90;;;;;;4938618;29;20027;-91
2021/03/13 08:41:43;;;;;;;0.60;0.40;;;3.90;99.90;;;;;;4933048;29;19973;-90
2021/03/13 08:44:12;;;;;;;0.47;0.47;;;3.90;99.90;;;;;;4937818;29;20058;-90
2021/03/13 08:46:49;;;;;;;0.38;0.32;;;3.90;99.90;;;;;;4937596;29;20035;-90
2021/03/13 08:49:21;;;;;;;0.40;0.40;;;3.90;99.90;;;;;;4936756;29;20035;-90
2021/03/13 08:51:47;;;;;;;1.95;0.30;;;3.90;99.90;;;;;;4935376;29;20027;-90
2021/03/13 08:54:33;;;;;;;1.75;0.20;;;3.90;99.90;;;;;;4937322;29;20023;-91
2021/03/13 08:56:58;;;;;;;0.20;0.15;;;3.90;99.90;;;;;;4936964;29;20059;-92
2021/03/13 08:59:24;;;;;;;0.20;0.20;;;3.90;99.90;;;;;;4937714;29;20071;-93
2021/03/13 09:02:03;;;;;;;1.65;0.28;;;3.90;99.90;;;;;;4937916;29;20023;-93
2021/03/13 09:04:31;;;;;;;0.20;0.20;;;3.90;99.90;;;;;;4937997;29;20031;-90
2021/03/13 09:06:58;;;;;;;0.10;0.10;;;3.90;99.90;;;;;;4937415;29;20477;-89
2021/03/13 09:09:26;;;;;;;0.43;0.10;;;3.80;99.90;;;;;;4935398;29;20419;-92
2021/03/13 09:12:01;;;;;;;0.25;0.15;;;3.80;99.90;;;;;;4938236;29;20044;-92
2021/03/13 09:14:27;;;;;;;0.20;0.20;;;3.80;99.90;;;;;;4937773;29;20042;-92
2021/03/13 09:16:54;;;;;;;1.45;0.30;;;3.90;99.90;;;;;;4941614;29;20054;-91
2021/03/13 09:19:20;;;;;;;0.88;0.50;;;3.90;99.90;;;;;;4945643;29;20027;-93
2021/03/13 09:21:50;;;;;;;6.78;0.50;;;4.00;99.90;;;;;;4967193;29;20055;-92
2021/03/13 09:24:25;;;;;;;0.60;0.30;;;4.00;99.90;;;;;;4948982;29;20034;-92
2021/03/13 09:27:01;;;;;;;7.53;1.17;;;4.10;99.90;;;;;;4946570;29;20054;-92
2021/03/13 09:29:33;;;;;;;5.00;1.02;;;4.10;99.90;;;;;;4945064;29;20027;-94
2021/03/13 09:32:01;;;;;;;2.33;0.90;;;4.10;99.90;;;;;;4951686;28;20031;-92
2021/03/13 09:34:29;;;;;;;3.75;0.60;;;4.10;99.90;;;;;;4934629;29;20019;-93
2021/03/13 09:36:55;;;;;;;3.60;0.70;;;4.10;99.90;;;;;;4931528;29;20031;-91
2021/03/13 09:39:30;;;;;;;8.18;1.85;;;4.10;99.90;;;;;;4934978;29;20027;-89
2021/03/13 09:42:15;;;;;;;9.35;1.10;;;4.10;99.90;;;;;;4939674;29;20070;-93
2021/03/13 09:44:43;;;;;;;7.70;1.25;;;4.10;99.90;;;;;;4937338;29;20027;-91
2021/03/13 09:47:29;;;;;;;7.85;1.00;;;4.20;99.90;;;;;;4946303;29;20028;-91
2021/03/13 09:50:06;;;;;;;10.07;1.10;;;4.40;99.90;;;;;;4957144;29;20485;-92
2021/03/13 09:52:38;;;;;;;11.73;1.90;;;4.40;99.90;;;;;;4931982;29;20032;-92
2021/03/13 09:55:20;;;;;;;9.05;2.95;;;4.50;99.90;;;;;;4935454;29;20030;-90
2021/03/13 09:57:51;;;;;;;10.43;1.30;;;4.50;99.90;;;;;;4951163;29;20334;-92
2021/03/13 10:00:24;;;;;;;14.15;1.35;;;4.60;99.90;;;;;;4937309;29;20027;-93
2021/03/13 10:02:51;;;;;;;14.55;1.60;;;4.70;99.90;;;;;;4943250;29;20055;-95
2021/03/13 10:05:18;;;;;;;6.15;1.13;;;4.80;99.90;;;;;;4942787;29;20046;-92
2021/03/13 10:07:46;;;;;;;5.90;1.23;;;4.90;99.90;;;;;;4943317;29;20631;-91
2021/03/13 10:10:25;;;;;;;6.53;1.25;;;5.00;99.90;;;;;;4960894;29;20054;-92
2021/03/13 10:12:54;;;;;;;7.78;1.10;;;5.20;99.90;;;;;;4943501;29;20125;-93
2021/03/13 10:15:25;;;;;;;5.93;0.95;;;5.40;99.90;;;;;;4943086;29;20031;-91
2021/03/13 10:18:15;;;;;;;6.13;1.35;;;5.50;99.90;;;;;;4949391;29;20033;-91
2021/03/13 10:20:49;;;;;;;7.28;1.30;;;5.60;99.90;;;;;;4943649;29;20032;-91
2021/03/13 10:23:20;;;;;;;4.53;0.95;;;5.60;99.90;;;;;;4959278;29;20025;-93
2021/03/13 10:25:57;;;;;;;;;;;5.70;99.90;;;;;;4956677;29;20044;-91
2021/03/13 10:28:31;;;;;;;5.55;1.42;;;5.80;99.90;;;;;;4948371;29;19899;-94
2021/03/13 10:31:09;;;;;;;11.15;1.90;;;5.90;99.90;;;;;;4948483;29;20023;-92
2021/03/13 10:33:36;;;;;;;5.82;1.67;;;5.90;99.90;;;;;;4962873;28;20024;-91
2021/03/13 10:36:02;;;;;;;11.80;1.38;;;5.90;99.90;;;;;;4952289;29;20046;-91
2021/03/13 10:38:28;;;;;;;9.82;1.27;;;5.90;99.90;;;;;;4949808;29;20032;-91
2021/03/13 10:41:05;;;;;;;10.90;1.35;;;5.80;99.90;;;;;;4953977;29;20388;-89
2021/03/13 10:43:38;;;;;;;14.48;1.50;;;5.70;99.90;;;;;;4956087;29;20059;-90
2021/03/13 10:46:24;;;;;;;8.27;1.50;;;5.60;99.90;;;;;;4945859;29;20023;-91
2021/03/13 10:48:53;;;;;;;10.70;1.52;;;5.50;99.90;;;;;;4945442;29;20034;-90
2021/03/13 10:51:22;;;;;;;10.82;1.38;;;5.40;99.90;;;;;;4961448;29;20112;-92
2021/03/13 10:53:49;;;;;;;8.87;1.40;;;5.50;99.90;;;;;;4963467;29;20114;-91
2021/03/13 10:56:16;;;;;;;2.17;0.85;;;5.70;99.90;;;;;;4949963;29;20350;-90
2021/03/13 10:58:47;;;;;;;4.88;1.13;;;6.00;99.90;;;;;;4951244;29;20066;-90
2021/03/13 11:01:13;;;;;;;15.35;1.88;;;6.30;99.90;;;;;;4963435;29;20106;-92
2021/03/13 11:03:42;;;;;;;8.02;1.55;;;6.70;99.90;;;;;;4963584;29;20012;-92
2021/03/13 11:06:09;;;;;;;3.80;1.10;;;6.90;99.90;;;;;;4964108;28;20037;-94
2021/03/13 11:08:35;;;;;;;3.40;1.10;;;7.10;99.90;;;;;;4963490;29;20035;-94
2021/03/13 11:11:04;;;;;;;11.50;1.50;;;7.50;99.90;;;;;;4935441;29;20043;-95
2021/03/13 11:13:30;;;;;;;6.55;1.42;;;7.70;99.90;;;;;;4954018;29;20023;-92
2021/03/13 11:15:56;;;;;;;6.85;2.08;;;8.00;99.90;;;;;;4953462;29;20062;-93
2021/03/13 11:18:22;;;;;;;15.05;1.67;;;8.20;99.90;;;;;;4958240;29;20079;-91
2021/03/13 11:20:48;;;;;;;7.53;1.70;;;8.30;99.90;;;;;;4944732;29;20090;-94
2021/03/13 11:23:15;;;;;;;12.82;1.42;;;8.40;99.90;;;;;;4944843;29;20016;-93
2021/03/13 11:25:41;;;;;;;9.80;1.98;;;8.60;99.90;;;;;;4944791;29;20050;-93
2021/03/13 11:28:07;;;;;;;9.95;1.35;;;8.70;99.90;;;;;;4957601;28;20057;-92
2021/03/13 11:30:34;;;;;;;11.43;1.40;;;8.70;99.90;;;;;;4956156;29;20035;-93
2021/03/13 11:33:00;;;;;;;10.57;1.77;;;8.60;99.90;;;;;;4957324;29;20019;-93
2021/03/13 11:35:25;;;;;;;6.85;1.27;;;8.50;99.90;;;;;;4947947;29;20032;-93
2021/03/13 11:37:52;;;;;;;8.57;1.60;;;8.60;99.90;;;;;;4991636;28;20011;-93
2021/03/13 11:40:20;;;;;;;10.90;1.25;;;8.70;99.90;;;;;;4963242;29;20030;-95
2021/03/13 11:42:46;;;;;;;4.88;1.02;;;8.60;99.90;;;;;;4953579;29;20028;-91
2021/03/13 11:45:13;;;;;;;11.32;1.55;;;8.40;99.90;;;;;;4948009;29;20055;-92
2021/03/13 11:48:03;;;;;;;9.07;1.23;;;8.10;99.90;;;;;;4944785;29;20023;-92
2021/03/13 11:50:30;;;;;;;11.85;2.25;;;7.80;99.90;;;;;;4950274;29;20052;-92
2021/03/13 11:52:59;;;;;;;8.10;2.03;;;7.80;99.90;;;;;;4954553;29;20039;-91
2021/03/13 11:55:30;;;;;;;4.13;0.77;;;7.80;99.90;;;;;;4948444;29;20047;-92
2021/03/13 11:57:58;;;;;;;10.45;1.50;;;7.70;99.90;;;;;;4950534;29;20031;-92
2021/03/13 12:00:24;;;;;;;6.35;1.17;;;7.50;99.90;;;;;;4958753;28;20012;-93
2021/03/13 12:02:50;;;;;;;5.40;1.00;;;7.30;99.90;;;;;;4955322;29;20016;-93
2021/03/13 12:05:16;;;;;;;6.65;1.00;;;7.20;99.90;;;;;;4952511;29;20008;-93
2021/03/13 12:07:45;;;;;;;3.22;0.77;;;7.10;99.90;;;;;;4948275;29;20096;-93
2021/03/13 12:10:11;;;;;;;6.00;1.15;;;7.20;99.90;;;;;;4948668;29;20047;-94
2021/03/13 12:12:42;;;;;;;12.63;1.00;;;7.50;99.90;;;;;;4950287;29;20035;-93
2021/03/13 12:15:18;;;;;;;2.88;1.17;;;7.90;99.90;;;;;;4958751;29;20041;-93
2021/03/13 12:17:45;;;;;;;7.68;1.10;;;8.20;99.90;;;;;;4955918;29;20059;-94
2021/03/13 12:20:14;;;;;;;7.22;0.90;;;8.30;99.90;;;;;;4939276;29;20024;-92
2021/03/13 12:22:40;;;;;;;3.83;1.10;;;8.60;99.90;;;;;;4955453;28;20023;-94
2021/03/13 12:25:06;;;;;;;2.35;0.60;;;8.80;99.10;;;;;;4975915;28;20012;-93
2021/03/13 12:27:39;;;;;;;7.57;1.02;;;8.90;98.10;;;;;;4954676;29;20043;-94
2021/03/13 12:30:19;;;;;;;3.78;1.08;;;8.80;97.20;;;;;;4948646;29;20094;-93
2021/03/13 12:32:52;;;;;;;6.82;0.88;;;8.60;96.10;;;;;;4938633;29;20035;-92
2021/03/13 12:35:18;;;;;;;5.15;1.42;;;8.30;96.70;;;;;;4939205;29;20023;-94
2021/03/13 12:37:44;;;;;;;11.90;1.90;;;8.10;96.80;;;;;;4938465;29;20097;-94
2021/03/13 12:40:10;;;;;;;5.30;1.15;;;8.00;97.20;;;;;;4932830;29;20055;-94
2021/03/13 12:42:36;;;;;;;5.55;1.25;;;7.80;97.90;;;;;;4938657;29;20544;-94
2021/03/13 12:45:04;;;;;;;9.85;1.55;;;7.60;98.70;;;;;;4943913;29;20051;-94
2021/03/13 12:47:30;;;;;;;6.35;1.10;;;7.40;99.60;;;;;;4941571;29;20031;-93
2021/03/13 12:49:56;;;;;;;7.90;0.77;;;7.40;99.90;;;;;;4938893;29;20087;-94
2021/03/13 12:52:22;;;;;;;5.82;1.75;;;7.40;99.90;;;;;;4939262;29;20039;-93
2021/03/13 12:54:51;;;;;;;8.65;1.50;;;7.40;99.90;;;;;;4933342;29;20034;-94
2021/03/13 12:57:17;;;;;;;4.90;1.20;;;7.60;99.90;;;;;;4929911;29;20082;-92
2021/03/13 12:59:44;;;;;;;11.40;1.30;;;7.80;98.70;;;;;;4929969;29;20016;-93
2021/03/13 13:02:10;;;;;;;7.22;1.40;;;7.70;97.80;;;;;;4933389;29;20020;-93
2021/03/13 13:04:36;;;;;;;9.43;1.20;;;7.60;98.40;;;;;;4939704;29;20039;-92
2021/03/13 13:07:01;;;;;;;5.97;1.20;;;7.50;98.30;;;;;;4944206;29;20027;-94
2021/03/13 13:09:30;;;;;;;12.63;1.10;;;7.50;98.60;;;;;;4938461;29;20051;-92
2021/03/13 13:11:55;;;;;;;2.80;0.77;;;7.80;97.80;;;;;;4932435;29;20035;-92